Aviation Digital Data Service (ADDS)

Output produced by METARs form (1330 UTC 23 January 2019)
found at http://www.aviationweather.gov/metar/data/
 
Forecast for: RJFT (KUMAMOTO(CIV/JAS, JP)
Text: TAF RJFT 231106Z 2312/2418 06005KT 9999 FEW040
Forecast period: 1200 UTC 23 January 2019 to 0000 UTC 24 January 2019
Forecast type: FROM: standard forecast or significant change
Winds: from the ENE (60 degrees) at 6 MPH (5 knots; 2.6 m/s)
Visibility: 6 or more miles 10+ km)
Ceiling: at least 12,000 feet AGL
Clouds: few clouds at 4000 feet AGL
Weather: no significant weather forecast for this period
Text: BECMG 2400/2403 29006KT
Forecast period: 0000 to 0900 UTC 24 January 2019
Forecast type: BECOMING: Conditions expected to become as follows by 0300 UTC 24 January 2019
Winds: from the WNW (290 degrees) at 7 MPH (6 knots; 3.1 m/s)
Visibility: 6 or more miles 10+ km)
Ceiling: at least 12,000 feet AGL
Clouds: few clouds at 4000 feet AGL
Weather: no significant weather forecast for this period
Text: BECMG 2409/2412 04005KT
Forecast period: 0900 to 1800 UTC 24 January 2019
Forecast type: BECOMING: Conditions expected to become as follows by 1200 UTC 24 January 2019
Winds: from the NE (40 degrees) at 6 MPH (5 knots; 2.6 m/s)
Visibility: 6 or more miles 10+ km)
Ceiling: at least 12,000 feet AGL
Clouds: few clouds at 4000 feet AGL
Weather: no significant weather forecast for this period